Time;durP1;ratioP1;P1;durP2;ratioP2;P2;SDS_P1;SDS_P2;PMS_P1;PMS_P2;Temp;Humidity;BMP_temperature;BMP_pressure;BME280_temperature;BME280_humidity;BME280_pressure;Samples;Min_cycle;Max_cycle;Signal;HPM_P1;HPM_P2
2022/04/11 00:02:25;;;;;;;5.32;3.35;;;3.10;99.90;;;;;;4986163;28;20044;-55
2022/04/11 00:04:51;;;;;;;7.03;3.50;;;3.10;99.90;;;;;;4989012;28;20115;-58
2022/04/11 00:07:17;;;;;;;9.40;3.33;;;3.10;99.90;;;;;;4987145;28;20490;-58
2022/04/11 00:09:43;;;;;;;5.72;3.30;;;3.00;99.90;;;;;;4976662;28;20124;-58
2022/04/11 00:12:10;;;;;;;7.13;3.28;;;3.00;99.90;;;;;;4980741;28;20037;-56
2022/04/11 00:14:36;;;;;;;10.20;4.28;;;3.00;99.90;;;;;;4975383;28;20041;-56
2022/04/11 00:17:02;;;;;;;8.13;4.10;;;3.00;99.90;;;;;;4989110;28;20030;-57
2022/04/11 00:19:28;;;;;;;5.53;3.25;;;3.00;99.90;;;;;;4982245;28;20054;-57
2022/04/11 00:21:54;;;;;;;7.18;3.90;;;2.90;99.90;;;;;;4991757;28;20483;-57
2022/04/11 00:24:19;;;;;;;7.63;3.60;;;2.90;99.90;;;;;;4989510;28;20070;-56
2022/04/11 00:26:45;;;;;;;7.72;3.95;;;2.90;99.90;;;;;;5008102;28;20041;-57
2022/04/11 00:29:11;;;;;;;6.25;3.63;;;2.90;99.90;;;;;;4971953;28;20056;-57
2022/04/11 00:31:36;;;;;;;7.40;3.63;;;2.90;99.90;;;;;;4988331;28;20479;-58
2022/04/11 00:34:02;;;;;;;8.30;4.30;;;2.90;99.90;;;;;;4971888;28;20048;-57
2022/04/11 00:36:28;;;;;;;9.27;3.92;;;2.90;99.90;;;;;;5003207;28;20124;-58
2022/04/11 00:38:53;;;;;;;8.80;3.72;;;2.90;99.90;;;;;;4977635;28;20128;-58
2022/04/11 00:41:19;;;;;;;8.50;4.20;;;2.90;99.90;;;;;;4982022;28;20461;-58
2022/04/11 00:43:45;;;;;;;6.80;3.35;;;2.90;99.90;;;;;;4978703;28;20057;-57
2022/04/11 00:46:11;;;;;;;7.07;4.53;;;2.80;99.90;;;;;;4985606;28;20037;-59
2022/04/11 00:48:37;;;;;;;7.57;4.00;;;2.80;99.90;;;;;;4977586;28;20111;-58
2022/04/11 00:51:19;;;;;;;7.97;4.05;;;2.90;99.90;;;;;;4986205;28;20494;-58
2022/04/11 00:53:46;;;;;;;6.65;3.90;;;2.80;99.90;;;;;;4992070;28;20077;-54
2022/04/11 00:56:15;;;;;;;7.57;3.72;;;2.80;99.90;;;;;;4981412;28;20057;-56
2022/04/11 00:58:41;;;;;;;8.13;4.72;;;2.70;99.90;;;;;;4980843;28;20049;-57
2022/04/11 01:01:08;;;;;;;8.43;3.95;;;2.70;99.90;;;;;;4986490;28;20050;-58
2022/04/11 01:03:34;;;;;;;6.35;4.20;;;2.80;99.90;;;;;;4984488;28;20180;-54
2022/04/11 01:06:01;;;;;;;7.35;3.85;;;2.70;99.90;;;;;;4986556;28;20049;-56
2022/04/11 01:08:27;;;;;;;7.60;4.05;;;2.70;99.90;;;;;;4990587;28;20262;-56
2022/04/11 01:10:53;;;;;;;6.38;4.05;;;2.70;99.90;;;;;;4985086;28;20050;-57
2022/04/11 01:13:20;;;;;;;4.80;3.22;;;2.70;99.90;;;;;;4992159;28;20041;-57
2022/04/11 01:15:56;;;;;;;7.18;4.03;;;2.70;99.90;;;;;;4989553;28;20048;-58
2022/04/11 01:18:22;;;;;;;9.02;5.03;;;2.70;99.90;;;;;;4958277;28;20108;-58
2022/04/11 01:20:47;;;;;;;9.15;4.65;;;2.70;99.90;;;;;;4970707;28;20554;-57
2022/04/11 01:23:13;;;;;;;6.63;4.05;;;2.60;99.90;;;;;;4967810;28;20570;-57
2022/04/11 01:25:40;;;;;;;6.97;4.20;;;2.60;99.90;;;;;;4995979;28;20128;-55
2022/04/11 01:28:06;;;;;;;7.65;4.18;;;2.60;99.90;;;;;;4988723;28;20046;-57
2022/04/11 01:30:32;;;;;;;7.53;3.85;;;2.60;99.90;;;;;;4982003;28;20132;-58
2022/04/11 01:32:58;;;;;;;6.13;3.67;;;2.60;99.90;;;;;;5005895;28;20052;-56
2022/04/11 01:35:27;;;;;;;7.25;3.88;;;2.60;99.90;;;;;;5002708;28;20021;-57
2022/04/11 01:37:55;;;;;;;6.10;3.95;;;2.50;99.90;;;;;;4986311;28;20034;-57
2022/04/11 01:40:21;;;;;;;8.48;3.92;;;2.60;99.90;;;;;;4981214;28;20052;-55
2022/04/11 01:42:47;;;;;;;9.40;4.07;;;2.60;99.90;;;;;;4983157;28;20041;-56
2022/04/11 01:45:13;;;;;;;7.03;4.05;;;2.60;99.90;;;;;;4984227;28;20048;-56
2022/04/11 01:47:40;;;;;;;6.32;3.90;;;2.60;99.90;;;;;;4984739;28;20072;-55
2022/04/11 01:50:09;;;;;;;9.68;4.35;;;2.50;99.90;;;;;;5008326;28;20049;-57
2022/04/11 01:52:35;;;;;;;9.55;3.72;;;2.50;99.90;;;;;;4998813;28;20057;-57
2022/04/11 01:55:03;;;;;;;7.50;3.83;;;2.50;99.90;;;;;;4989378;28;20131;-56
2022/04/11 01:57:29;;;;;;;6.95;3.70;;;2.50;99.90;;;;;;4968902;28;20049;-56
2022/04/11 01:59:55;;;;;;;6.10;3.10;;;2.50;99.90;;;;;;4981125;28;20042;-56
2022/04/11 02:02:21;;;;;;;13.65;4.00;;;2.50;99.90;;;;;;4976574;28;20049;-56
2022/04/11 02:04:47;;;;;;;7.22;3.10;;;2.50;99.90;;;;;;4984940;28;20038;-55
2022/04/11 02:07:13;;;;;;;6.30;3.08;;;2.50;99.90;;;;;;4983333;28;20050;-54
2022/04/11 02:09:38;;;;;;;6.32;3.10;;;2.50;99.90;;;;;;4987920;28;21066;-57
2022/04/11 02:12:05;;;;;;;6.45;4.05;;;2.50;99.90;;;;;;4983339;28;20030;-55
2022/04/11 02:14:30;;;;;;;7.10;3.50;;;2.60;99.90;;;;;;4979721;28;20037;-57
2022/04/11 02:16:57;;;;;;;8.75;3.88;;;2.50;99.90;;;;;;4967045;28;20051;-55
2022/04/11 02:19:23;;;;;;;7.07;3.58;;;2.60;99.90;;;;;;4976729;28;20621;-57
2022/04/11 02:21:49;;;;;;;6.95;3.55;;;2.50;99.90;;;;;;4966137;28;20077;-56
2022/04/11 02:24:14;;;;;;;7.93;3.50;;;2.50;99.90;;;;;;4974761;28;20047;-56
2022/04/11 02:26:40;;;;;;;6.63;3.90;;;2.50;99.90;;;;;;5005829;28;20045;-57
2022/04/11 02:29:06;;;;;;;8.15;3.63;;;2.50;99.90;;;;;;4995401;28;20507;-57
2022/04/11 02:31:31;;;;;;;7.53;3.95;;;2.50;99.90;;;;;;4996488;28;20245;-57
2022/04/11 02:33:57;;;;;;;5.25;3.38;;;2.50;99.90;;;;;;4997676;28;20061;-56
2022/04/11 02:36:23;;;;;;;6.18;3.67;;;2.50;99.90;;;;;;4994734;28;20037;-57
2022/04/11 02:38:48;;;;;;;7.07;3.63;;;2.40;99.90;;;;;;4994496;28;20044;-57
2022/04/11 02:41:14;;;;;;;9.80;3.92;;;2.40;99.90;;;;;;5002530;28;20402;-55
2022/04/11 02:43:40;;;;;;;7.28;3.75;;;2.40;99.90;;;;;;4972976;28;20054;-57
2022/04/11 02:46:05;;;;;;;8.45;3.63;;;2.30;99.90;;;;;;4994024;28;20363;-56
2022/04/11 02:48:31;;;;;;;7.15;3.22;;;2.40;99.90;;;;;;4991911;28;20076;-57
2022/04/11 02:50:57;;;;;;;6.93;3.47;;;2.50;99.90;;;;;;4971294;28;20449;-56
2022/04/11 02:53:22;;;;;;;6.55;4.00;;;2.50;99.90;;;;;;5001001;28;20045;-55
2022/04/11 02:55:48;;;;;;;6.75;3.65;;;2.40;99.90;;;;;;4994200;28;20552;-56
2022/04/11 02:58:15;;;;;;;7.60;3.38;;;2.30;99.90;;;;;;4997489;28;20178;-56
2022/04/11 03:00:41;;;;;;;7.78;3.50;;;2.30;99.90;;;;;;5003101;28;20073;-56
2022/04/11 03:03:07;;;;;;;7.32;3.70;;;2.30;99.90;;;;;;4999566;28;20199;-55
2022/04/11 03:05:35;;;;;;;5.95;3.72;;;2.30;99.90;;;;;;4999339;28;20081;-56
2022/04/11 03:08:01;;;;;;;5.38;3.80;;;2.20;99.90;;;;;;5002958;28;20133;-57
2022/04/11 03:10:26;;;;;;;11.60;4.05;;;2.20;99.90;;;;;;4993329;28;20072;-57
2022/04/11 03:12:52;;;;;;;6.68;3.50;;;2.20;99.90;;;;;;5002519;28;20061;-56
2022/04/11 03:15:18;;;;;;;5.63;3.30;;;2.20;99.90;;;;;;5023504;28;20049;-57
2022/04/11 03:17:44;;;;;;;6.88;3.25;;;2.30;99.90;;;;;;5001215;28;20033;-57
2022/04/11 03:20:10;;;;;;;8.65;3.17;;;2.30;99.90;;;;;;4979325;28;20505;-56
2022/04/11 03:22:35;;;;;;;7.40;3.45;;;2.50;99.90;;;;;;4988162;28;20450;-57
2022/04/11 03:25:01;;;;;;;7.32;3.28;;;2.70;99.90;;;;;;4964223;28;20038;-57
2022/04/11 03:27:27;;;;;;;8.40;3.55;;;2.70;99.90;;;;;;4969964;28;20050;-57
2022/04/11 03:29:53;;;;;;;6.75;3.72;;;2.70;99.90;;;;;;4989252;28;20042;-57
2022/04/11 03:32:18;;;;;;;8.32;3.58;;;2.60;99.90;;;;;;5007115;28;20164;-57
2022/04/11 03:34:44;;;;;;;7.60;3.83;;;2.60;99.90;;;;;;4977488;28;20040;-57
2022/04/11 03:37:10;;;;;;;5.82;3.17;;;2.50;99.90;;;;;;4972434;28;20049;-57
2022/04/11 03:39:36;;;;;;;9.15;4.07;;;2.50;99.90;;;;;;4977598;28;20072;-59
2022/04/11 03:42:02;;;;;;;6.93;2.65;;;2.50;99.90;;;;;;4986348;28;20048;-57
2022/04/11 03:44:27;;;;;;;11.88;4.88;;;2.60;99.90;;;;;;4973845;28;20438;-56
2022/04/11 03:46:53;;;;;;;7.90;3.60;;;2.70;99.90;;;;;;4973493;28;20498;-58
2022/04/11 03:49:19;;;;;;;7.28;3.40;;;2.70;99.90;;;;;;4970548;28;20056;-57
2022/04/11 03:51:45;;;;;;;11.68;3.95;;;2.70;99.90;;;;;;4990817;28;20441;-57
2022/04/11 03:54:11;;;;;;;6.55;3.40;;;2.70;99.90;;;;;;4990823;28;20042;-57
2022/04/11 03:56:36;;;;;;;7.03;3.72;;;2.70;99.90;;;;;;4991080;28;20417;-58
2022/04/11 03:59:02;;;;;;;8.07;4.85;;;2.70;99.90;;;;;;4989066;28;20060;-56
2022/04/11 04:01:28;;;;;;;8.52;3.75;;;2.80;99.90;;;;;;4988463;28;20048;-54
2022/04/11 04:03:53;;;;;;;6.28;3.55;;;2.70;99.90;;;;;;4970517;28;20493;-55
2022/04/11 04:06:20;;;;;;;12.43;3.70;;;2.90;99.90;;;;;;4992056;28;20052;-55
2022/04/11 04:08:45;;;;;;;8.02;3.63;;;2.90;99.90;;;;;;4987182;28;20115;-56
2022/04/11 04:11:11;;;;;;;9.23;3.65;;;2.90;99.90;;;;;;4973538;28;20045;-55
2022/04/11 04:13:37;;;;;;;6.20;3.20;;;2.90;99.90;;;;;;4996175;28;20038;-58
2022/04/11 04:16:03;;;;;;;5.30;2.90;;;3.00;99.90;;;;;;4980046;28;20041;-57
2022/04/11 04:18:29;;;;;;;8.85;3.25;;;3.00;99.90;;;;;;4997874;28;20084;-56
2022/04/11 04:20:55;;;;;;;6.63;3.10;;;3.00;99.90;;;;;;4983668;28;20136;-56
2022/04/11 04:23:23;;;;;;;6.72;2.88;;;3.00;99.90;;;;;;4971963;28;20057;-56
2022/04/11 04:25:49;;;;;;;5.60;2.88;;;3.00;99.90;;;;;;4994817;28;20565;-56
2022/04/11 04:28:17;;;;;;;6.53;2.80;;;3.00;99.90;;;;;;4972831;28;20065;-57
2022/04/11 04:30:46;;;;;;;4.82;2.50;;;3.00;99.90;;;;;;4991319;28;20050;-56
2022/04/11 04:33:15;;;;;;;5.38;2.80;;;3.10;99.90;;;;;;4984361;28;20034;-56
2022/04/11 04:35:40;;;;;;;7.28;2.70;;;3.10;99.90;;;;;;4977369;28;20053;-56
2022/04/11 04:38:06;;;;;;;6.90;2.85;;;3.20;99.90;;;;;;4992373;28;20046;-57
2022/04/11 04:40:32;;;;;;;7.78;3.20;;;3.10;99.90;;;;;;4992092;28;20045;-57
2022/04/11 04:42:58;;;;;;;5.40;2.90;;;3.20;99.90;;;;;;4993271;28;20083;-57
2022/04/11 04:45:24;;;;;;;4.15;2.35;;;3.30;99.90;;;;;;4984545;28;20483;-56
2022/04/11 04:47:49;;;;;;;10.07;3.45;;;3.30;99.90;;;;;;4991290;28;20037;-56
2022/04/11 04:50:15;;;;;;;5.65;2.75;;;3.30;99.90;;;;;;4986007;28;20524;-57
2022/04/11 04:52:41;;;;;;;4.50;2.30;;;3.40;99.90;;;;;;4965736;28;20045;-57
2022/04/11 04:55:07;;;;;;;6.90;2.70;;;3.40;99.90;;;;;;4976313;28;20049;-56
2022/04/11 04:57:34;;;;;;;7.30;3.03;;;3.40;99.90;;;;;;4988335;28;20525;-56
2022/04/11 05:00:00;;;;;;;4.82;2.85;;;3.40;99.90;;;;;;4994561;28;20436;-57
2022/04/11 05:02:34;;;;;;;5.05;2.92;;;3.50;99.90;;;;;;4959740;28;21284;-54
2022/04/11 05:05:08;;;;;;;5.07;2.67;;;3.40;99.90;;;;;;4958083;28;20041;-55
2022/04/11 05:07:33;;;;;;;7.38;2.45;;;3.40;99.90;;;;;;4998999;28;20091;-57
2022/04/11 05:10:00;;;;;;;7.40;3.00;;;3.50;99.90;;;;;;4966054;28;20045;-59
2022/04/11 05:12:26;;;;;;;7.53;3.42;;;3.50;99.90;;;;;;4985636;28;20052;-56
2022/04/11 05:14:51;;;;;;;9.10;3.70;;;3.50;99.90;;;;;;5000008;23;20049;-55
2022/04/11 05:17:17;;;;;;;12.13;3.60;;;3.50;99.90;;;;;;4990321;28;20041;-52
2022/04/11 05:19:43;;;;;;;6.10;2.85;;;3.50;99.90;;;;;;4971090;28;20470;-56
2022/04/11 05:22:09;;;;;;;4.50;2.70;;;3.60;99.90;;;;;;4991949;28;20046;-55
2022/04/11 05:24:34;;;;;;;5.40;2.85;;;3.70;99.90;;;;;;4979242;28;20045;-56
2022/04/11 05:27:00;;;;;;;3.83;2.58;;;3.60;99.90;;;;;;4973206;28;20099;-54
2022/04/11 05:29:25;;;;;;;8.48;3.55;;;3.70;99.90;;;;;;4971412;28;20674;-53
2022/04/11 05:31:51;;;;;;;7.55;3.65;;;3.70;99.90;;;;;;4984054;28;20046;-53
2022/04/11 05:34:17;;;;;;;7.45;3.33;;;3.70;99.90;;;;;;4972521;28;20499;-53
2022/04/11 05:36:43;;;;;;;8.32;4.00;;;3.70;99.90;;;;;;4973599;28;20386;-54
2022/04/11 05:39:08;;;;;;;5.32;2.92;;;3.70;99.90;;;;;;4972346;28;20057;-54
2022/04/11 05:41:34;;;;;;;6.15;2.95;;;3.70;99.90;;;;;;4989976;28;20048;-53
2022/04/11 05:44:00;;;;;;;6.60;3.17;;;3.90;99.90;;;;;;4960892;28;20042;-55
2022/04/11 05:46:25;;;;;;;6.43;3.95;;;3.80;99.90;;;;;;4968994;28;20564;-56
2022/04/11 05:48:51;;;;;;;8.10;4.22;;;3.90;99.90;;;;;;4991149;28;20034;-54
2022/04/11 05:51:17;;;;;;;6.57;2.90;;;3.90;99.90;;;;;;4980365;28;20038;-53
2022/04/11 05:53:42;;;;;;;6.05;3.53;;;3.90;99.90;;;;;;4977043;28;20121;-57
2022/04/11 05:56:08;;;;;;;8.93;3.00;;;3.90;99.90;;;;;;4981208;28;20050;-55
2022/04/11 05:58:34;;;;;;;9.68;3.78;;;3.90;99.90;;;;;;4979820;28;20049;-56
2022/04/11 06:00:59;;;;;;;10.05;3.42;;;4.00;99.90;;;;;;4990231;28;20542;-52
2022/04/11 06:03:25;;;;;;;9.60;3.70;;;4.00;99.90;;;;;;4973549;28;20042;-55
2022/04/11 06:05:51;;;;;;;6.63;3.53;;;4.00;99.90;;;;;;4980821;28;20038;-54
2022/04/11 06:08:17;;;;;;;8.75;3.28;;;4.00;99.90;;;;;;4997183;28;20100;-55
2022/04/11 06:10:44;;;;;;;7.63;3.10;;;4.00;99.90;;;;;;4963696;28;20052;-59
2022/04/11 06:13:10;;;;;;;4.13;2.63;;;4.00;99.90;;;;;;4982086;28;20424;-53
2022/04/11 06:15:35;;;;;;;5.90;3.28;;;4.10;99.90;;;;;;4974199;28;20033;-55
2022/04/11 06:18:01;;;;;;;9.80;4.05;;;4.10;99.90;;;;;;4976466;28;20042;-54
2022/04/11 06:20:27;;;;;;;35.72;5.22;;;4.10;99.90;;;;;;4992252;28;20513;-54
2022/04/11 06:22:52;;;;;;;11.18;3.33;;;4.10;99.90;;;;;;4977528;28;20496;-55
2022/04/11 06:25:18;;;;;;;84.22;7.82;;;4.20;99.90;;;;;;4982977;28;20034;-58
2022/04/11 06:27:44;;;;;;;20.45;3.45;;;4.20;99.90;;;;;;4972774;28;20125;-55
2022/04/11 06:30:10;;;;;;;8.73;2.80;;;4.30;99.90;;;;;;4985125;28;20049;-56
2022/04/11 06:32:36;;;;;;;7.88;2.88;;;4.30;99.90;;;;;;4993854;28;20415;-57
2022/04/11 06:35:02;;;;;;;8.02;3.83;;;4.30;99.90;;;;;;4969098;28;20034;-54
2022/04/11 06:37:28;;;;;;;7.13;3.60;;;4.40;99.90;;;;;;4980514;28;20041;-55
2022/04/11 06:39:54;;;;;;;11.07;3.03;;;4.30;99.90;;;;;;5000368;28;20193;-57
2022/04/11 06:42:20;;;;;;;9.05;3.70;;;4.40;99.90;;;;;;4986756;28;20041;-56
2022/04/11 06:44:46;;;;;;;9.70;4.28;;;4.40;99.90;;;;;;4987635;28;20516;-55
2022/04/11 06:47:12;;;;;;;24.83;4.75;;;4.40;99.90;;;;;;4997269;28;20052;-57
2022/04/11 06:49:38;;;;;;;8.70;3.25;;;4.50;99.90;;;;;;4980209;28;20061;-54
2022/04/11 06:52:05;;;;;;;10.95;3.45;;;4.60;99.90;;;;;;4984690;28;20046;-56
2022/04/11 06:54:31;;;;;;;8.35;3.05;;;4.60;99.90;;;;;;4983168;28;20053;-62
2022/04/11 06:56:57;;;;;;;5.68;2.88;;;4.60;99.90;;;;;;4966868;28;20100;-59
2022/04/11 06:59:23;;;;;;;9.57;2.97;;;4.60;99.90;;;;;;4977512;28;20529;-56
2022/04/11 07:01:48;;;;;;;4.35;2.85;;;4.70;99.90;;;;;;4979134;28;20106;-56
2022/04/11 07:04:14;;;;;;;6.38;3.33;;;4.80;99.90;;;;;;4998840;28;20057;-55
2022/04/11 07:06:40;;;;;;;9.02;3.97;;;4.80;99.90;;;;;;4982059;28;20050;-57
2022/04/11 07:09:05;;;;;;;9.70;3.60;;;4.90;99.90;;;;;;4975718;28;20046;-57
2022/04/11 07:11:31;;;;;;;7.55;3.08;;;5.00;99.90;;;;;;4988793;28;20574;-60
2022/04/11 07:13:57;;;;;;;7.28;3.28;;;5.10;99.90;;;;;;4979014;28;20038;-57
2022/04/11 07:16:24;;;;;;;10.15;3.65;;;5.10;99.90;;;;;;4966096;28;20045;-59
2022/04/11 07:18:51;;;;;;;6.78;3.05;;;5.20;99.90;;;;;;4996130;28;20060;-58
2022/04/11 07:21:17;;;;;;;8.88;3.60;;;5.30;99.90;;;;;;4976344;28;20049;-58
2022/04/11 07:23:43;;;;;;;5.03;3.17;;;5.30;99.90;;;;;;4974666;28;20041;-58
2022/04/11 07:26:09;;;;;;;7.45;3.15;;;5.40;99.90;;;;;;4987302;28;20045;-61
2022/04/11 07:28:35;;;;;;;8.52;3.35;;;5.40;99.90;;;;;;4948002;28;20124;-57
2022/04/11 07:31:01;;;;;;;8.10;3.00;;;5.50;99.90;;;;;;4997981;28;20092;-57
2022/04/11 07:33:26;;;;;;;8.18;3.50;;;5.60;99.90;;;;;;4989510;28;20070;-57
2022/04/11 07:35:52;;;;;;;7.10;3.20;;;5.60;99.90;;;;;;4996733;28;20039;-58
2022/04/11 07:38:19;;;;;;;6.78;2.80;;;5.70;99.90;;;;;;5003251;28;20099;-57
2022/04/11 07:40:45;;;;;;;7.57;2.67;;;5.70;99.90;;;;;;5002174;28;20065;-60
2022/04/11 07:43:10;;;;;;;6.80;3.58;;;5.80;99.90;;;;;;4981729;28;20034;-56
2022/04/11 07:45:36;;;;;;;7.15;4.60;;;5.80;99.90;;;;;;4983367;28;20351;-58
2022/04/11 07:48:02;;;;;;;10.48;4.50;;;5.90;99.90;;;;;;4981366;28;20070;-57
2022/04/11 07:50:28;;;;;;;10.50;4.53;;;6.00;99.90;;;;;;4993288;28;20371;-56
2022/04/11 07:52:54;;;;;;;7.72;3.45;;;6.20;99.90;;;;;;4976806;28;20034;-55
2022/04/11 07:55:19;;;;;;;10.52;5.28;;;6.20;99.90;;;;;;4986703;28;20067;-61
2022/04/11 07:57:45;;;;;;;8.55;4.30;;;6.40;99.90;;;;;;4987068;28;20122;-58
2022/04/11 08:00:11;;;;;;;9.15;3.85;;;6.50;99.90;;;;;;4986184;28;20045;-57
2022/04/11 08:02:37;;;;;;;6.95;3.47;;;6.70;99.90;;;;;;4973631;28;20041;-56
2022/04/11 08:05:07;;;;;;;6.93;4.00;;;6.70;99.90;;;;;;4974592;28;20107;-55
2022/04/11 08:07:33;;;;;;;11.13;4.18;;;6.90;99.90;;;;;;4974708;28;20044;-57
2022/04/11 08:10:04;;;;;;;8.63;3.50;;;7.00;99.90;;;;;;4991978;28;20038;-62
2022/04/11 08:12:30;;;;;;;9.52;3.28;;;7.20;99.90;;;;;;4959471;28;20892;-57
2022/04/11 08:14:56;;;;;;;7.55;3.63;;;7.30;99.90;;;;;;4969054;28;20025;-56
2022/04/11 08:17:22;;;;;;;9.27;3.25;;;7.50;99.90;;;;;;4976228;28;20065;-55
2022/04/11 08:19:47;;;;;;;7.60;3.47;;;7.70;99.90;;;;;;4995089;28;20045;-55
2022/04/11 08:22:13;;;;;;;6.68;3.10;;;7.90;99.90;;;;;;4991861;28;20041;-55
2022/04/11 08:24:39;;;;;;;5.65;2.88;;;8.10;99.90;;;;;;4975755;28;20046;-60
2022/04/11 08:27:05;;;;;;;5.90;3.13;;;8.20;99.90;;;;;;4978169;28;20125;-57
2022/04/11 08:29:30;;;;;;;10.30;3.25;;;8.40;99.90;;;;;;4976395;28;20414;-58
2022/04/11 08:31:56;;;;;;;6.78;3.20;;;8.60;99.90;;;;;;4986432;28;20049;-56
2022/04/11 08:34:22;;;;;;;9.43;3.30;;;8.70;99.90;;;;;;4964819;28;20466;-55
2022/04/11 08:36:48;;;;;;;5.13;2.63;;;8.90;99.90;;;;;;4977593;28;20108;-55
2022/04/11 08:39:15;;;;;;;8.48;3.40;;;9.10;99.90;;;;;;4973768;28;20096;-58
2022/04/11 08:41:41;;;;;;;6.70;2.97;;;9.30;99.90;;;;;;4946454;28;20033;-58
2022/04/11 08:44:07;;;;;;;6.68;2.70;;;9.30;99.90;;;;;;4983660;28;20395;-55
2022/04/11 08:46:34;;;;;;;7.15;3.22;;;9.50;99.90;;;;;;4969109;28;20045;-55
2022/04/11 08:49:02;;;;;;;6.15;2.90;;;9.60;99.90;;;;;;4983260;28;20042;-54
2022/04/11 08:51:31;;;;;;;5.57;2.90;;;9.80;99.90;;;;;;5004854;28;20054;-57
2022/04/11 08:53:59;;;;;;;12.07;4.28;;;10.00;99.90;;;;;;4984371;28;20080;-60
2022/04/11 08:56:25;;;;;;;5.30;2.70;;;10.20;99.90;;;;;;4979788;28;20502;-55
2022/04/11 08:58:51;;;;;;;5.72;2.40;;;10.30;99.20;;;;;;4977373;28;20665;-55
2022/04/11 09:01:17;;;;;;;4.72;2.50;;;10.40;98.50;;;;;;4964229;28;20106;-58
2022/04/11 09:03:43;;;;;;;7.40;3.30;;;10.40;98.40;;;;;;4967610;28;20487;-57
2022/04/11 09:06:13;;;;;;;9.05;2.95;;;10.60;98.20;;;;;;5004477;28;20045;-57
2022/04/11 09:08:48;;;;;;;6.22;2.30;;;10.70;98.20;;;;;;4986478;28;20053;-59
2022/04/11 09:11:44;;;;;;;3.25;1.92;;;10.80;97.50;;;;;;4981505;28;20422;-56
2022/04/11 09:14:10;;;;;;;6.07;2.13;;;10.90;96.20;;;;;;4987076;28;20614;-61
2022/04/11 09:16:43;;;;;;;7.05;2.20;;;11.10;95.50;;;;;;4968988;28;20049;-57
2022/04/11 09:19:22;;;;;;;7.95;1.95;;;11.20;94.90;;;;;;4984906;28;20037;-59
2022/04/11 09:21:48;;;;;;;3.33;1.50;;;11.30;92.10;;;;;;4975360;28;20085;-56
2022/04/11 09:24:17;;;;;;;14.77;3.50;;;11.40;92.00;;;;;;4986193;28;20056;-58
2022/04/11 09:26:43;;;;;;;5.30;1.92;;;11.50;91.30;;;;;;4984945;28;20038;-57
2022/04/11 09:29:09;;;;;;;5.07;1.80;;;11.60;91.30;;;;;;5000588;28;20484;-57
2022/04/11 09:31:35;;;;;;;5.22;1.50;;;11.80;90.60;;;;;;4975959;28;20425;-56
2022/04/11 09:34:17;;;;;;;3.75;1.75;;;11.90;89.20;;;;;;4979278;28;22172;-57
2022/04/11 09:36:47;;;;;;;7.38;1.77;;;12.00;87.30;;;;;;4974820;28;20037;-59
2022/04/11 09:39:13;;;;;;;4.78;1.50;;;12.10;87.40;;;;;;4985534;28;20371;-58
2022/04/11 09:41:43;;;;;;;2.65;1.60;;;12.20;85.80;;;;;;4980726;28;20038;-57
2022/04/11 09:44:24;;;;;;;3.65;1.60;;;12.20;82.50;;;;;;4977176;28;20270;-55
2022/04/11 09:46:51;;;;;;;3.72;1.92;;;12.30;83.30;;;;;;4977623;28;20096;-59
2022/04/11 09:49:17;;;;;;;4.95;1.63;;;12.40;83.40;;;;;;4981828;28;20042;-58
2022/04/11 09:52:14;;;;;;;4.55;1.63;;;12.40;80.80;;;;;;4999418;28;20121;-58
2022/04/11 09:54:43;;;;;;;4.38;1.63;;;12.40;78.80;;;;;;4985079;28;20041;-55
2022/04/11 09:57:09;;;;;;;3.83;1.50;;;12.50;79.40;;;;;;4980797;28;20037;-59
2022/04/11 09:59:36;;;;;;;3.80;1.80;;;12.60;77.10;;;;;;4984470;28;20067;-54
2022/04/11 10:02:03;;;;;;;8.45;2.35;;;12.70;79.70;;;;;;4978458;28;20380;-57
2022/04/11 10:04:29;;;;;;;4.35;3.13;;;12.80;78.10;;;;;;5003678;28;20266;-57
2022/04/11 10:06:56;;;;;;;3.30;2.00;;;12.90;75.90;;;;;;4983785;28;20096;-56
2022/04/11 10:09:23;;;;;;;6.43;4.07;;;13.00;76.60;;;;;;4990447;28;20045;-61
2022/04/11 10:11:54;;;;;;;7.10;4.90;;;13.10;74.70;;;;;;4986826;28;20104;-59
2022/04/11 10:14:26;;;;;;;6.60;3.70;;;13.20;74.30;;;;;;4983960;28;20046;-57
2022/04/11 10:16:57;;;;;;;7.22;3.58;;;13.10;73.80;;;;;;4977732;28;20045;-55
2022/04/11 10:19:31;;;;;;;5.10;2.92;;;13.20;74.00;;;;;;4983262;28;20042;-56
2022/04/11 10:21:59;;;;;;;;;;;13.30;69.70;;;;;;4986182;28;20046;-59
2022/04/11 10:24:38;;;;;;;4.80;2.13;;;13.20;67.50;;;;;;4988922;28;19918;-56
2022/04/11 10:27:22;;;;;;;9.52;4.38;;;13.20;72.90;;;;;;4979196;28;20038;-56
2022/04/11 10:29:50;;;;;;;4.55;2.28;;;13.40;69.20;;;;;;4995110;28;20054;-58
2022/04/11 10:32:23;;;;;;;6.72;2.53;;;13.40;72.60;;;;;;5000917;28;20569;-57
2022/04/11 10:35:02;;;;;;;6.30;2.38;;;13.40;69.10;;;;;;4992535;28;20479;-57
2022/04/11 10:37:40;;;;;;;5.32;2.53;;;13.40;67.50;;;;;;4971096;28;20069;-56
2022/04/11 10:40:21;;;;;;;3.42;1.90;;;13.40;69.20;;;;;;4977339;28;20041;-57
2022/04/11 10:43:08;;;;;;;4.40;2.90;;;13.50;70.40;;;;;;4973672;28;20384;-56
2022/04/11 10:45:40;;;;;;;7.13;2.53;;;13.60;68.90;;;;;;4975263;28;20049;-59
2022/04/11 10:48:08;;;;;;;5.85;2.83;;;13.70;68.90;;;;;;4951963;28;20050;-58
2022/04/11 10:50:34;;;;;;;5.90;2.50;;;13.60;67.80;;;;;;4975182;28;20097;-58
2022/04/11 10:53:22;;;;;;;5.28;2.50;;;13.70;69.20;;;;;;4959487;28;20510;-56
2022/04/11 10:55:59;;;;;;;5.40;2.72;;;13.80;69.60;;;;;;4966206;28;20117;-58
2022/04/11 10:58:49;;;;;;;5.75;2.70;;;14.00;65.90;;;;;;4965474;28;20049;-58
2022/04/11 11:01:36;;;;;;;8.95;3.17;;;13.90;64.30;;;;;;4993714;28;20068;-59
2022/04/11 11:04:18;;;;;;;6.53;2.60;;;13.80;66.40;;;;;;4951015;28;20403;-56
2022/04/11 11:06:44;;;;;;;3.97;2.55;;;14.00;67.50;;;;;;4988091;28;20513;-58
2022/04/11 11:09:17;;;;;;;3.97;2.25;;;14.10;67.30;;;;;;4976918;28;20129;-60
2022/04/11 11:11:48;;;;;;;14.43;4.68;;;14.20;65.50;;;;;;4986239;28;20114;-56
2022/04/11 11:14:49;;;;;;;44.42;7.00;;;14.20;68.20;;;;;;4970613;28;20103;-56
2022/04/11 11:17:15;;;;;;;11.05;3.70;;;14.30;63.80;;;;;;4919153;28;20397;-57
2022/04/11 11:20:04;;;;;;;7.35;3.05;;;14.30;68.00;;;;;;4982386;28;20122;-57
2022/04/11 11:23:16;;;;;;;5.95;2.28;;;14.40;63.10;;;;;;4981231;28;20042;-57
2022/04/11 11:25:42;;;;;;;5.78;2.92;;;14.40;65.40;;;;;;4972126;28;20525;-57
2022/04/11 11:28:12;;;;;;;4.90;2.78;;;14.40;62.80;;;;;;4981538;28;20265;-57
2022/04/11 11:30:39;;;;;;;4.40;2.53;;;14.50;64.20;;;;;;4972261;28;20025;-58
2022/04/11 11:33:08;;;;;;;6.68;2.60;;;14.40;62.10;;;;;;4967775;28;20057;-57
2022/04/11 11:35:33;;;;;;;6.57;2.88;;;14.40;63.80;;;;;;4988298;28;20041;-57
2022/04/11 11:38:05;;;;;;;5.18;2.53;;;14.40;62.80;;;;;;4973437;28;20038;-56
2022/04/11 11:40:33;;;;;;;6.15;2.80;;;14.50;64.50;;;;;;4980028;28;20053;-57
2022/04/11 11:42:59;;;;;;;9.90;3.30;;;14.70;64.20;;;;;;4984517;28;20041;-60
2022/04/11 11:45:28;;;;;;;7.95;3.47;;;14.90;65.40;;;;;;4952662;28;20084;-57
2022/04/11 11:47:54;;;;;;;7.97;3.28;;;15.00;64.10;;;;;;4984435;28;20121;-57
2022/04/11 11:50:20;;;;;;;5.10;3.22;;;15.10;62.80;;;;;;4979993;28;20049;-57
2022/04/11 11:52:59;;;;;;;7.43;3.38;;;15.10;63.70;;;;;;4983288;28;20037;-56
2022/04/11 11:55:25;;;;;;;7.00;2.95;;;15.30;63.00;;;;;;4975596;28;20048;-57
2022/04/11 11:58:04;;;;;;;6.07;2.97;;;15.50;63.60;;;;;;4975410;28;20049;-58
2022/04/11 12:00:34;;;;;;;5.18;3.20;;;15.70;63.90;;;;;;4965018;28;20314;-58
2022/04/11 12:05:45;;;;;;;6.60;2.95;;;15.50;62.30;;;;;;4984783;28;20046;-57
2022/04/11 12:08:17;;;;;;;6.78;3.08;;;15.40;60.10;;;;;;4996031;28;20050;-55
2022/04/11 12:10:52;;;;;;;6.43;2.90;;;15.20;59.40;;;;;;4978556;28;20041;-56
2022/04/11 12:13:22;;;;;;;5.18;3.25;;;15.20;62.50;;;;;;4987476;28;20694;-61
2022/04/11 12:15:48;;;;;;;6.63;2.90;;;15.50;63.60;;;;;;4997193;28;20037;-56
2022/04/11 12:18:15;;;;;;;5.10;2.67;;;15.80;62.60;;;;;;4990683;28;20372;-58
2022/04/11 12:20:43;;;;;;;5.60;2.75;;;16.00;63.70;;;;;;4967945;28;20069;-58
2022/04/11 12:23:12;;;;;;;5.07;2.70;;;16.20;61.00;;;;;;4984467;28;20427;-58
2022/04/11 12:25:39;;;;;;;7.35;3.10;;;16.20;61.70;;;;;;4983146;28;20057;-58
2022/04/11 12:28:12;;;;;;;5.85;3.15;;;15.90;59.20;;;;;;4984107;28;20045;-58
2022/04/11 12:30:45;;;;;;;7.80;3.20;;;15.80;56.40;;;;;;4980192;28;20061;-58
2022/04/11 12:33:30;;;;;;;15.50;4.85;;;15.50;57.90;;;;;;5000732;28;20137;-57
2022/04/11 12:36:13;;;;;;;7.88;3.08;;;15.40;57.80;;;;;;4983912;28;20072;-59
2022/04/11 12:38:57;;;;;;;5.43;3.53;;;15.40;57.60;;;;;;4979770;28;20038;-58
2022/04/11 12:41:27;;;;;;;5.65;3.33;;;15.50;61.20;;;;;;4990334;28;20065;-59
2022/04/11 12:44:07;;;;;;;4.85;3.25;;;15.70;59.60;;;;;;4983585;28;20049;-57
2022/04/11 12:46:34;;;;;;;5.32;2.97;;;15.80;58.00;;;;;;4977451;28;20680;-58
2022/04/11 12:49:01;;;;;;;6.30;3.42;;;15.90;59.30;;;;;;4979286;28;20041;-60
2022/04/11 12:51:28;;;;;;;5.65;3.70;;;16.10;59.20;;;;;;4982299;28;20050;-57
2022/04/11 12:54:14;;;;;;;5.38;3.17;;;16.30;58.80;;;;;;4983676;28;20132;-60
2022/04/11 12:56:50;;;;;;;6.72;2.85;;;16.40;56.50;;;;;;4982839;28;20037;-58
2022/04/11 12:59:38;;;;;;;7.32;3.40;;;16.50;56.10;;;;;;4982671;28;20055;-57
2022/04/11 13:02:12;;;;;;;4.95;2.92;;;16.30;56.30;;;;;;4984277;28;20072;-58